createdAt,value
2022-08-22T00:01:34.057Z,5.78
2022-08-22T00:02:45.054Z,4.22
2022-08-22T00:02:46.055Z,5.50
2022-08-22T00:02:54.938Z,5.03
2022-08-22T00:02:56.261Z,5.20
2022-08-22T00:02:57.281Z,5.03
2022-08-22T00:02:58.481Z,5.30
2022-08-22T00:03:15.317Z,5.45
2022-08-22T00:04:18.133Z,5.38
2022-08-22T00:06:59.874Z,5.63
2022-08-22T00:09:39.172Z,5.47
2022-08-22T00:12:22.625Z,5.05
2022-08-22T00:15:02.931Z,5.97
2022-08-22T00:17:48.751Z,5.45
2022-08-22T00:20:28.161Z,6.25
2022-08-22T00:23:17.476Z,6.50
2022-08-22T00:26:01.443Z,6.38
2022-08-22T00:28:39.119Z,6.35
2022-08-22T00:31:23.785Z,6.45
2022-08-22T00:34:01.349Z,6.10
2022-08-22T00:36:40.514Z,6.07
2022-08-22T00:39:18.568Z,6.28
2022-08-22T00:42:36.619Z,6.35
2022-08-22T00:45:45.831Z,6.78
2022-08-22T00:48:41.667Z,6.38
2022-08-22T00:52:14.379Z,6.15
2022-08-22T00:55:07.982Z,5.95
2022-08-22T00:58:02.966Z,6.05
2022-08-22T01:00:39.931Z,5.97
2022-08-22T01:03:46.749Z,5.78
2022-08-22T01:06:29.348Z,5.95
2022-08-22T01:09:15.380Z,6.10
2022-08-22T01:12:34.162Z,5.75
2022-08-22T01:15:09.775Z,6.43
2022-08-22T01:18:04.280Z,6.50
2022-08-22T01:21:37.882Z,6.88
2022-08-22T01:27:57.638Z,6.32
2022-08-22T01:31:20.756Z,6.88
2022-08-22T01:34:45.566Z,6.80
2022-08-22T01:38:01.969Z,6.90
2022-08-22T01:41:20.463Z,6.90
2022-08-22T01:44:25.787Z,6.80
2022-08-22T01:47:05.047Z,6.47
2022-08-22T01:49:47.984Z,6.95
2022-08-22T01:52:30.144Z,6.53
2022-08-22T01:55:08.000Z,6.43
2022-08-22T01:57:53.227Z,6.25
2022-08-22T02:00:35.207Z,6.07
2022-08-22T02:03:24.227Z,7.00
2022-08-22T02:06:03.961Z,6.60
2022-08-22T02:08:45.736Z,6.70
2022-08-22T02:11:39.563Z,6.55
2022-08-22T02:14:27.331Z,7.10
2022-08-22T02:17:10.403Z,7.18
2022-08-22T02:19:51.180Z,6.10
2022-08-22T02:22:33.985Z,6.70
2022-08-22T02:25:13.389Z,6.63
2022-08-22T02:27:56.681Z,6.72
2022-08-22T02:30:43.144Z,6.65
2022-08-22T02:33:27.605Z,6.88
2022-08-22T02:36:03.528Z,6.55
2022-08-22T02:38:39.835Z,6.97
2022-08-22T02:41:22.838Z,6.13
2022-08-22T02:43:58.141Z,6.43
2022-08-22T02:46:43.113Z,6.80
2022-08-22T02:49:23.537Z,6.72
2022-08-22T02:52:08.197Z,7.20
2022-08-22T02:54:48.458Z,6.30
2022-08-22T02:57:31.456Z,6.70
2022-08-22T03:00:31.313Z,6.20
2022-08-22T03:03:16.977Z,5.85
2022-08-22T03:06:01.403Z,6.55
2022-08-22T03:08:36.260Z,6.57
2022-08-22T03:11:26.952Z,6.32
2022-08-22T03:14:15.107Z,6.10
2022-08-22T03:16:53.711Z,6.32
2022-08-22T03:19:32.833Z,5.90
2022-08-22T03:22:08.386Z,6.60
2022-08-22T03:24:51.515Z,6.30
2022-08-22T03:27:33.152Z,6.40
2022-08-22T03:30:11.189Z,6.47
2022-08-22T03:32:54.575Z,6.63
2022-08-22T03:35:38.490Z,6.50
2022-08-22T03:38:21.834Z,7.15
2022-08-22T03:41:16.459Z,6.63
2022-08-22T03:44:11.696Z,6.03
2022-08-22T03:47:28.304Z,6.28
2022-08-22T03:50:44.853Z,6.25
2022-08-22T03:53:54.569Z,6.40
2022-08-22T03:57:01.027Z,6.20
2022-08-22T04:00:10.663Z,6.55
2022-08-22T04:03:13.095Z,5.78
2022-08-22T04:06:27.309Z,6.20
2022-08-22T04:10:15.894Z,5.95
2022-08-22T04:13:01.376Z,5.75
2022-08-22T04:16:07.996Z,6.10
2022-08-22T04:19:13.621Z,6.53
2022-08-22T04:22:08.489Z,6.18
2022-08-22T04:24:57.270Z,6.40
2022-08-22T04:27:33.975Z,6.43
2022-08-22T04:30:20.836Z,7.40
2022-08-22T04:32:59.713Z,6.10
2022-08-22T04:35:35.327Z,5.63
2022-08-22T04:38:13.393Z,6.05
2022-08-22T04:40:50.212Z,6.03
2022-08-22T04:43:26.981Z,6.30
2022-08-22T04:46:03.434Z,5.80
2022-08-22T04:48:41.325Z,6.00
2022-08-22T04:51:22.022Z,5.45
2022-08-22T04:54:25.226Z,5.65
2022-08-22T04:57:15.290Z,5.85
2022-08-22T04:59:44.970Z,5.75
2022-08-22T05:02:24.468Z,5.63
2022-08-22T05:05:04.900Z,5.80
2022-08-22T05:07:47.603Z,5.80
2022-08-22T05:10:33.523Z,5.82
2022-08-22T05:13:11.175Z,5.65
2022-08-22T05:15:45.845Z,5.40
2022-08-22T05:18:23.536Z,5.55
2022-08-22T05:20:59.814Z,5.20
2022-08-22T05:23:32.284Z,5.63
2022-08-22T05:26:06.179Z,4.90
2022-08-22T05:28:38.343Z,5.25
2022-08-22T05:31:13.259Z,4.80
2022-08-22T05:33:48.252Z,5.00
2022-08-22T05:36:27.014Z,4.63
2022-08-22T05:39:03.527Z,4.53
2022-08-22T05:41:39.929Z,4.55
2022-08-22T05:44:19.884Z,4.28
2022-08-22T05:46:57.361Z,4.47
2022-08-22T05:49:37.398Z,4.50
2022-08-22T05:52:17.890Z,3.55
2022-08-22T05:54:57.591Z,4.32
2022-08-22T05:57:34.754Z,3.92
2022-08-22T06:00:10.850Z,4.47
2022-08-22T06:02:59.045Z,4.25
2022-08-22T06:05:31.923Z,3.95
2022-08-22T06:08:09.153Z,3.72
2022-08-22T06:10:44.111Z,3.70
2022-08-22T06:13:25.487Z,4.10
2022-08-22T06:16:06.748Z,4.20
2022-08-22T06:18:41.052Z,3.40
2022-08-22T06:21:18.845Z,3.55
2022-08-22T06:23:57.561Z,3.42
2022-08-22T06:26:31.111Z,3.30
2022-08-22T06:29:03.718Z,3.38
2022-08-22T06:31:37.927Z,3.17
2022-08-22T06:34:12.548Z,3.25
2022-08-22T06:36:46.060Z,2.88
2022-08-22T06:39:23.591Z,3.17
2022-08-22T06:42:01.116Z,2.90
2022-08-22T06:44:35.442Z,2.97
2022-08-22T06:47:11.914Z,3.20
2022-08-22T06:49:43.853Z,2.80
2022-08-22T06:52:20.220Z,2.47
2022-08-22T06:54:59.202Z,2.63
2022-08-22T06:57:34.239Z,2.60
2022-08-22T07:00:09.794Z,2.65
2022-08-22T07:02:44.186Z,2.38
2022-08-22T07:05:20.119Z,2.10
2022-08-22T07:07:50.342Z,2.30
2022-08-22T07:10:24.739Z,1.60
2022-08-22T07:12:57.762Z,1.55
2022-08-22T07:15:36.630Z,1.90
2022-08-22T07:18:09.084Z,1.90
2022-08-22T07:20:45.273Z,1.77
2022-08-22T07:23:32.616Z,1.83
2022-08-22T07:26:22.977Z,1.80
2022-08-22T07:28:58.055Z,1.90
2022-08-22T07:31:38.238Z,1.83
2022-08-22T07:34:29.348Z,1.90
2022-08-22T07:37:04.175Z,2.05
2022-08-22T07:39:39.521Z,1.85
2022-08-22T07:42:17.256Z,1.90
2022-08-22T07:45:06.944Z,2.00
2022-08-22T07:48:00.588Z,1.90
2022-08-22T07:50:33.665Z,1.80
2022-08-22T07:53:13.641Z,1.70
2022-08-22T07:55:49.427Z,1.70
2022-08-22T07:58:23.061Z,1.70
2022-08-22T08:00:54.077Z,1.77
2022-08-22T08:03:26.835Z,2.20
2022-08-22T08:05:56.469Z,1.88
2022-08-22T08:08:34.521Z,1.92
2022-08-22T08:11:07.150Z,1.80
2022-08-22T08:13:42.856Z,1.90
2022-08-22T08:16:19.334Z,1.90
2022-08-22T08:18:52.112Z,2.20
2022-08-22T08:21:31.084Z,2.13
2022-08-22T08:24:02.205Z,1.95
2022-08-22T08:26:36.652Z,1.85
2022-08-22T08:29:08.217Z,1.98
2022-08-22T08:31:43.380Z,2.10
2022-08-22T08:34:24.967Z,2.03
2022-08-22T08:36:59.384Z,2.13
2022-08-22T08:39:36.452Z,2.10
2022-08-22T08:42:55.182Z,1.90
2022-08-22T08:45:51.732Z,1.52
2022-08-22T08:48:53.737Z,2.10
2022-08-22T08:51:53.674Z,1.70
2022-08-22T08:54:56.010Z,1.80
2022-08-22T08:57:48.135Z,1.80
2022-08-22T09:00:29.080Z,2.17
2022-08-22T09:06:30.644Z,1.88
2022-08-22T09:09:17.222Z,1.90
2022-08-22T09:12:18.419Z,2.00
2022-08-22T09:15:26.040Z,2.20
2022-08-22T09:18:33.281Z,2.00
2022-08-22T09:21:30.765Z,2.00
2022-08-22T09:24:49.099Z,1.80
2022-08-22T09:27:31.771Z,1.70
2022-08-22T09:30:11.549Z,2.20
2022-08-22T09:32:55.751Z,1.95
2022-08-22T09:35:42.472Z,1.90
2022-08-22T09:38:29.028Z,1.98
2022-08-22T09:41:14.547Z,2.00
2022-08-22T09:43:50.304Z,1.70
2022-08-22T09:46:31.510Z,1.80
2022-08-22T09:49:14.108Z,1.63
2022-08-22T09:52:05.287Z,1.92
2022-08-22T09:54:51.924Z,1.73
2022-08-22T09:57:35.622Z,1.73
2022-08-22T10:00:26.670Z,2.00
2022-08-22T10:03:17.095Z,2.00
2022-08-22T10:05:54.908Z,1.80
2022-08-22T10:08:45.914Z,1.83
2022-08-22T10:11:28.712Z,1.70
2022-08-22T10:14:06.011Z,1.60
2022-08-22T10:17:01.692Z,1.80
2022-08-22T10:19:40.135Z,1.77
2022-08-22T10:22:30.356Z,1.75
2022-08-22T10:25:33.173Z,2.10
2022-08-22T10:28:21.212Z,1.70
2022-08-22T10:31:09.457Z,1.40
2022-08-22T10:33:48.883Z,1.73
2022-08-22T10:36:32.374Z,1.80
2022-08-22T10:39:05.526Z,1.50
2022-08-22T10:42:00.223Z,1.50
2022-08-22T10:44:43.100Z,1.90
2022-08-22T10:47:22.008Z,1.55
2022-08-22T10:49:56.601Z,1.80
2022-08-22T10:52:33.123Z,1.83
2022-08-22T10:55:13.326Z,1.38
2022-08-22T10:58:06.791Z,1.50
2022-08-22T11:00:50.444Z,1.52
2022-08-22T11:03:32.867Z,1.65
2022-08-22T11:06:07.700Z,1.52
2022-08-22T11:09:16.173Z,1.70
2022-08-22T11:11:50.242Z,1.63
2022-08-22T11:15:12.421Z,1.50
2022-08-22T11:18:20.962Z,1.40
2022-08-22T11:21:01.740Z,1.70
2022-08-22T11:23:46.155Z,1.48
2022-08-22T11:26:41.682Z,1.45
2022-08-22T11:29:43.472Z,1.45
2022-08-22T11:32:25.725Z,1.52
2022-08-22T11:35:04.388Z,1.40
2022-08-22T11:37:54.949Z,1.40
2022-08-22T11:40:43.639Z,1.40
2022-08-22T11:43:37.243Z,1.30
2022-08-22T11:46:20.922Z,1.45
2022-08-22T11:49:25.611Z,1.42
2022-08-22T11:52:19.970Z,1.40
2022-08-22T11:55:12.463Z,1.48
2022-08-22T11:57:46.018Z,1.40
2022-08-22T12:00:34.932Z,1.40
2022-08-22T12:03:44.945Z,1.27
2022-08-22T12:06:41.766Z,1.25
2022-08-22T12:09:20.380Z,1.50
2022-08-22T12:12:17.116Z,1.30
2022-08-22T12:14:56.269Z,1.30
2022-08-22T12:18:02.328Z,1.40
2022-08-22T12:21:09.191Z,1.38
2022-08-22T12:24:19.125Z,1.38
2022-08-22T12:27:14.799Z,1.40
2022-08-22T12:30:20.772Z,1.40
2022-08-22T12:33:28.993Z,1.50
2022-08-22T12:36:17.740Z,1.27
2022-08-22T12:39:17.465Z,1.25
2022-08-22T12:42:29.814Z,1.20
2022-08-22T12:45:29.048Z,1.10
2022-08-22T12:48:17.882Z,1.17
2022-08-22T12:50:56.020Z,1.35
2022-08-22T12:53:59.573Z,1.27
2022-08-22T12:56:52.139Z,1.30
2022-08-22T12:59:31.238Z,1.48
2022-08-22T13:02:04.899Z,1.38
2022-08-22T13:04:35.725Z,1.25
2022-08-22T13:07:23.738Z,1.63
2022-08-22T13:09:57.773Z,1.50
2022-08-22T13:12:35.166Z,1.40
2022-08-22T13:15:25.459Z,1.60
2022-08-22T13:18:08.736Z,1.50
2022-08-22T13:20:51.077Z,1.40
2022-08-22T13:23:26.013Z,1.55
2022-08-22T13:26:07.451Z,1.50
2022-08-22T13:28:45.949Z,1.58
2022-08-22T13:31:26.753Z,1.30
2022-08-22T13:34:02.153Z,1.58
2022-08-22T13:36:41.045Z,1.30
2022-08-22T13:39:29.655Z,1.55
2022-08-22T13:42:14.228Z,1.40
2022-08-22T13:44:50.969Z,1.60
2022-08-22T13:47:22.439Z,1.60
2022-08-22T13:49:55.489Z,1.50
2022-08-22T13:52:32.295Z,1.77
2022-08-22T13:55:12.157Z,1.30
2022-08-22T13:58:03.053Z,1.67
2022-08-22T14:01:28.599Z,1.33
2022-08-22T14:04:05.592Z,1.40
2022-08-22T14:06:55.597Z,1.50
2022-08-22T14:09:43.126Z,1.38
2022-08-22T14:12:19.072Z,1.80
2022-08-22T14:14:55.895Z,1.58
2022-08-22T14:17:38.445Z,1.55
2022-08-22T14:20:32.680Z,1.77
2022-08-22T14:23:08.811Z,1.60
2022-08-22T14:25:40.487Z,1.67
2022-08-22T14:28:21.657Z,1.60
2022-08-22T14:31:03.539Z,1.90
2022-08-22T14:33:40.868Z,1.70
2022-08-22T14:36:19.237Z,1.70
2022-08-22T14:38:56.164Z,1.50
2022-08-22T14:41:55.420Z,1.70
2022-08-22T14:44:30.456Z,1.63
2022-08-22T14:47:32.204Z,1.55
2022-08-22T14:49:59.428Z,1.60
2022-08-22T14:52:40.566Z,1.60
2022-08-22T14:55:17.143Z,1.60
2022-08-22T14:57:53.872Z,1.73
2022-08-22T15:00:34.941Z,1.50
2022-08-22T15:03:15.301Z,1.55
2022-08-22T15:05:51.031Z,1.73
2022-08-22T15:08:33.453Z,2.00
2022-08-22T15:11:22.116Z,2.10
2022-08-22T15:14:05.611Z,1.88
2022-08-22T15:16:38.132Z,2.30
2022-08-22T15:19:25.447Z,2.47
2022-08-22T15:22:20.044Z,1.92
2022-08-22T15:25:02.126Z,2.17
2022-08-22T15:27:35.733Z,1.88
2022-08-22T15:30:20.617Z,2.25
2022-08-22T15:32:50.167Z,2.00
2022-08-22T15:35:31.492Z,1.83
2022-08-22T15:38:06.627Z,2.10
2022-08-22T15:40:42.279Z,1.90
2022-08-22T15:43:23.038Z,1.90
2022-08-22T15:46:09.895Z,1.77
2022-08-22T15:48:56.759Z,1.77
2022-08-22T15:51:40.849Z,2.10
2022-08-22T15:54:24.665Z,2.00
2022-08-22T15:57:19.375Z,2.33
2022-08-22T15:59:58.888Z,2.03
2022-08-22T16:02:37.470Z,2.03
2022-08-22T16:05:23.904Z,2.17
2022-08-22T16:08:05.791Z,2.00
2022-08-22T16:10:42.446Z,1.95
2022-08-22T16:13:40.014Z,1.83
2022-08-22T16:16:34.602Z,1.80
2022-08-22T16:19:28.496Z,2.03
2022-08-22T16:22:15.529Z,1.75
2022-08-22T16:25:10.282Z,1.98
2022-08-22T16:27:55.175Z,1.70
2022-08-22T16:30:37.417Z,1.90
2022-08-22T16:33:08.809Z,1.80
2022-08-22T16:36:41.779Z,1.80
2022-08-22T16:39:29.670Z,1.70
2022-08-22T16:42:28.376Z,1.77
2022-08-22T16:45:13.684Z,1.98
2022-08-22T16:47:56.632Z,1.70
2022-08-22T16:50:36.453Z,1.80
2022-08-22T16:53:11.180Z,1.88
2022-08-22T16:56:13.660Z,1.95
2022-08-22T16:59:24.481Z,1.70
2022-08-22T17:02:26.089Z,2.10
2022-08-22T17:05:19.661Z,1.80
2022-08-22T17:08:12.182Z,2.00
2022-08-22T17:10:51.986Z,1.80
2022-08-22T17:13:49.942Z,1.90
2022-08-22T17:16:49.763Z,1.80
2022-08-22T17:19:39.312Z,1.90
2022-08-22T17:22:28.463Z,1.85
2022-08-22T17:25:21.767Z,1.70
2022-08-22T17:27:56.040Z,1.90
2022-08-22T17:30:37.009Z,2.10
2022-08-22T17:33:18.403Z,2.10
2022-08-22T17:36:07.155Z,1.92
2022-08-22T17:39:26.352Z,2.05
2022-08-22T17:42:16.543Z,1.90
2022-08-22T17:45:04.483Z,1.83
2022-08-22T17:47:45.804Z,1.90
2022-08-22T17:50:26.675Z,2.00
2022-08-22T17:53:04.476Z,1.80
2022-08-22T17:55:59.909Z,2.15
2022-08-22T17:58:43.695Z,2.17
2022-08-22T18:01:38.433Z,1.92
2022-08-22T18:04:16.646Z,2.05
2022-08-22T18:06:57.078Z,1.88
2022-08-22T18:09:39.920Z,2.33
2022-08-22T18:12:22.526Z,2.30
2022-08-22T18:14:59.285Z,2.17
2022-08-22T18:17:38.109Z,2.30
2022-08-22T18:20:17.038Z,2.13
2022-08-22T18:22:54.897Z,2.00
2022-08-22T18:25:44.612Z,2.33
2022-08-22T18:28:29.234Z,2.30
2022-08-22T18:31:02.073Z,2.47
2022-08-22T18:33:38.530Z,2.17
2022-08-22T18:36:16.001Z,2.15
2022-08-22T18:38:56.573Z,2.20
2022-08-22T18:41:36.877Z,2.22
2022-08-22T18:44:11.952Z,2.35
2022-08-22T18:46:47.181Z,2.38
2022-08-22T18:49:41.878Z,2.22
2022-08-22T18:52:38.362Z,2.40
2022-08-22T18:55:45.377Z,2.67
2022-08-22T18:58:49.433Z,2.60
2022-08-22T19:01:51.972Z,2.50
2022-08-22T19:04:54.504Z,2.47
2022-08-22T19:08:02.341Z,2.28
2022-08-22T19:10:55.481Z,2.60
2022-08-22T19:13:48.404Z,2.60
2022-08-22T19:17:16.294Z,2.70
2022-08-22T19:20:19.093Z,2.78
2022-08-22T19:22:51.069Z,2.90
2022-08-22T19:25:28.375Z,2.70
2022-08-22T19:28:26.658Z,2.90
2022-08-22T19:31:23.526Z,3.30
2022-08-22T19:34:15.848Z,2.92
2022-08-22T19:37:06.337Z,2.90
2022-08-22T19:39:55.501Z,3.13
2022-08-22T19:42:41.653Z,2.95
2022-08-22T19:45:26.564Z,3.00
2022-08-22T19:47:59.419Z,3.00
2022-08-22T19:50:34.539Z,2.90
2022-08-22T19:53:35.713Z,2.85
2022-08-22T19:56:23.943Z,3.40
2022-08-22T19:59:07.366Z,3.22
2022-08-22T20:01:56.047Z,3.22
2022-08-22T20:04:47.364Z,3.15
2022-08-22T20:07:27.702Z,3.03
2022-08-22T20:10:15.851Z,3.38
2022-08-22T20:13:19.103Z,3.25
2022-08-22T20:16:19.795Z,3.50
2022-08-22T20:19:20.165Z,3.50
2022-08-22T20:21:59.186Z,3.50
2022-08-22T20:24:40.006Z,4.10
2022-08-22T20:27:15.474Z,3.67
2022-08-22T20:30:03.267Z,3.72
2022-08-22T20:32:38.705Z,4.05
2022-08-22T20:35:08.790Z,3.83
2022-08-22T20:38:05.949Z,4.05
2022-08-22T20:40:55.377Z,3.92
2022-08-22T20:43:34.409Z,4.05
2022-08-22T20:46:23.983Z,4.20
2022-08-22T20:48:57.046Z,4.30
2022-08-22T20:51:29.232Z,4.20
2022-08-22T20:54:01.499Z,4.05
2022-08-22T20:56:48.721Z,3.97
2022-08-22T20:59:31.933Z,4.20
2022-08-22T21:02:13.925Z,3.85
2022-08-22T21:04:52.711Z,4.40
2022-08-22T21:07:29.625Z,4.55
2022-08-22T21:10:23.162Z,4.57
2022-08-22T21:13:10.973Z,4.80
2022-08-22T21:15:42.923Z,4.05
2022-08-22T21:18:14.842Z,4.63
2022-08-22T21:20:43.235Z,4.82
2022-08-22T21:23:16.846Z,4.57
2022-08-22T21:25:56.691Z,4.65
2022-08-22T21:28:35.941Z,4.75
2022-08-22T21:31:14.377Z,4.78
2022-08-22T21:33:48.305Z,4.97
2022-08-22T21:36:24.386Z,4.93
2022-08-22T21:38:56.037Z,4.88
2022-08-22T21:41:31.504Z,4.72
2022-08-22T21:44:28.878Z,4.85
2022-08-22T21:46:59.050Z,5.13
2022-08-22T21:49:31.083Z,4.80
2022-08-22T21:51:59.338Z,4.78
2022-08-22T21:54:40.843Z,5.22
2022-08-22T21:57:33.524Z,4.85
2022-08-22T22:00:02.200Z,5.40
2022-08-22T22:02:43.696Z,4.88
2022-08-22T22:05:17.151Z,4.80
2022-08-22T22:07:48.146Z,4.78
2022-08-22T22:10:20.192Z,5.00
2022-08-22T22:12:52.338Z,5.00
2022-08-22T22:15:23.240Z,5.10
2022-08-22T22:17:51.833Z,4.70
2022-08-22T22:20:23.974Z,4.57
2022-08-22T22:22:52.503Z,4.70
2022-08-22T22:25:40.704Z,4.55
2022-08-22T22:28:17.426Z,4.85
2022-08-22T22:30:50.464Z,4.43
2022-08-22T22:33:19.076Z,4.50
2022-08-22T22:35:50.516Z,4.95
2022-08-22T22:38:23.382Z,5.38
2022-08-22T22:40:52.897Z,5.05
2022-08-22T22:43:21.241Z,5.60
2022-08-22T22:45:49.958Z,5.72
2022-08-22T22:48:24.271Z,5.53
2022-08-22T22:50:55.830Z,5.10
2022-08-22T22:53:28.604Z,5.13
2022-08-22T22:56:10.070Z,5.32
2022-08-22T22:58:40.489Z,5.25
2022-08-22T23:01:11.164Z,5.10
2022-08-22T23:03:39.857Z,5.18
2022-08-22T23:06:14.906Z,5.22
2022-08-22T23:08:43.623Z,5.20
2022-08-22T23:11:15.325Z,5.00
2022-08-22T23:13:43.892Z,5.10
2022-08-22T23:16:16.950Z,5.30
2022-08-22T23:18:46.793Z,5.22
2022-08-22T23:21:21.052Z,5.22
2022-08-22T23:23:50.675Z,5.55
2022-08-22T23:26:19.330Z,5.47
2022-08-22T23:28:47.779Z,5.28
2022-08-22T23:31:19.689Z,5.60
2022-08-22T23:33:48.392Z,5.45
2022-08-22T23:36:21.553Z,5.53
2022-08-22T23:38:52.231Z,5.10
2022-08-22T23:41:21.902Z,4.95
2022-08-22T23:43:55.051Z,5.20
2022-08-22T23:46:26.567Z,4.82
2022-08-22T23:48:55.965Z,4.88
2022-08-22T23:51:26.859Z,4.72
2022-08-22T23:53:57.882Z,4.97
2022-08-22T23:56:30.545Z,5.20
2022-08-22T23:59:00.690Z,5.47
